Time;durP1;ratioP1;P1;durP2;ratioP2;P2;SDS_P1;SDS_P2;PMS_P1;PMS_P2;Temp;Humidity;BMP_temperature;BMP_pressure;BME280_temperature;BME280_humidity;BME280_pressure;Samples;Min_cycle;Max_cycle;Signal;HPM_P1;HPM_P2
2022/08/30 00:05:48;;;;;;;1.98;1.77;;;;;;;16.12;66.31;100956.53;10079138;29;20176;-79
2022/08/30 00:10:53;;;;;;;1.77;1.67;;;;;;;16.04;66.56;100959.13;10086984;29;20143;-77
2022/08/30 00:15:56;;;;;;;2.70;2.08;;;;;;;16.02;66.53;100947.63;10098742;29;20162;-77
2022/08/30 00:20:59;;;;;;;6.55;2.10;;;;;;;16.00;66.95;100962.31;10063435;29;20049;-78
2022/08/30 00:26:04;;;;;;;2.22;1.83;;;;;;;15.99;66.79;100961.47;10074897;29;20664;-79
2022/08/30 00:31:07;;;;;;;2.00;1.75;;;;;;;15.87;67.33;100968.88;10074834;29;20100;-77
2022/08/30 00:36:10;;;;;;;3.58;1.83;;;;;;;15.81;67.72;100974.03;10099917;29;20053;-79
2022/08/30 00:41:14;;;;;;;2.92;2.00;;;;;;;15.77;67.59;100965.34;10097254;29;20100;-77
2022/08/30 00:46:18;;;;;;;4.43;1.70;;;;;;;15.68;67.74;100961.63;10071525;29;20092;-79
2022/08/30 00:51:23;;;;;;;3.63;2.17;;;;;;;15.62;68.20;100958.63;10057965;29;20045;-78
2022/08/30 00:56:28;;;;;;;2.38;2.10;;;;;;;15.57;68.35;100958.22;10086079;29;20053;-77
2022/08/30 01:01:32;;;;;;;2.72;1.95;;;;;;;15.52;68.46;100963.19;10066992;29;20073;-78
2022/08/30 01:06:38;;;;;;;2.40;2.20;;;;;;;15.53;68.66;100968.47;10066338;29;20052;-78
2022/08/30 01:11:44;;;;;;;2.10;1.95;;;;;;;15.58;68.57;100963.50;10086850;29;20058;-78
2022/08/30 01:16:47;;;;;;;3.88;2.20;;;;;;;15.57;68.92;100952.78;10068671;29;20508;-77
2022/08/30 01:21:55;;;;;;;3.25;2.20;;;;;;;15.53;69.02;100959.50;10068036;29;20061;-78
2022/08/30 01:26:59;;;;;;;2.22;1.90;;;;;;;15.46;69.05;100964.63;10066186;29;20055;-78
2022/08/30 01:32:05;;;;;;;3.28;1.95;;;;;;;15.48;69.60;100960.78;10094923;29;20432;-77
2022/08/30 01:37:08;;;;;;;2.70;2.40;;;;;;;15.46;69.24;100957.34;10083949;29;20499;-78
2022/08/30 01:42:12;;;;;;;9.95;3.25;;;;;;;15.45;69.22;100965.63;10078872;29;20122;-79
2022/08/30 01:47:17;;;;;;;3.80;2.05;;;;;;;15.36;69.58;100966.47;10100979;29;20216;-78
2022/08/30 01:52:19;;;;;;;2.47;2.28;;;;;;;15.31;69.97;100964.16;10104376;29;20171;-77
2022/08/30 01:57:25;;;;;;;3.00;2.38;;;;;;;15.22;70.31;100965.88;10092073;29;20423;-78
2022/08/30 02:02:29;;;;;;;2.55;2.30;;;;;;;15.20;70.87;100962.44;10093417;29;20757;-78
2022/08/30 02:07:32;;;;;;;2.35;2.15;;;;;;;15.20;70.61;100962.44;10084270;29;20157;-76
2022/08/30 02:12:37;;;;;;;2.83;2.20;;;;;;;15.27;70.63;100965.44;10081179;29;20407;-78
2022/08/30 02:17:41;;;;;;;2.85;2.47;;;;;;;15.23;70.83;100972.13;10065902;29;20068;-78
2022/08/30 02:22:44;;;;;;;2.40;2.20;;;;;;;15.18;71.40;100964.44;10068266;29;20187;-78
2022/08/30 02:27:52;;;;;;;2.97;2.10;;;;;;;15.18;71.20;100969.00;10089061;29;20523;-77
2022/08/30 02:32:56;;;;;;;2.42;2.28;;;;;;;15.15;71.33;100975.53;10100612;29;20426;-78
2022/08/30 02:37:59;;;;;;;3.20;2.17;;;;;;;15.09;71.26;100975.25;10079864;29;20450;-78
2022/08/30 02:43:03;;;;;;;4.20;2.55;;;;;;;15.01;71.79;100967.81;10081869;29;20057;-78
2022/08/30 02:48:06;;;;;;;3.88;2.13;;;;;;;14.92;72.17;100974.94;10083290;29;20084;-78
2022/08/30 02:53:09;;;;;;;4.53;2.65;;;;;;;14.88;72.04;100969.94;10090561;29;20557;-77
2022/08/30 02:58:19;;;;;;;4.05;2.78;;;;;;;14.90;72.55;100967.94;10077572;29;20057;-77
2022/08/30 03:03:22;;;;;;;3.38;2.70;;;;;;;15.00;72.16;100969.69;10053116;29;20467;-77
2022/08/30 03:08:25;;;;;;;2.65;2.38;;;;;;;14.98;71.82;100968.97;10084197;29;20051;-77
2022/08/30 03:13:30;;;;;;;2.25;2.10;;;;;;;15.03;71.97;100974.81;10089628;29;20060;-78
2022/08/30 03:18:33;;;;;;;2.75;2.53;;;;;;;15.01;72.08;100967.81;10089092;29;20064;-78
2022/08/30 03:23:36;;;;;;;3.03;2.75;;;;;;;15.03;72.34;100966.69;10063612;29;20052;-78
2022/08/30 03:28:41;;;;;;;3.33;2.75;;;;;;;14.98;72.39;100960.84;10078337;29;20116;-79
2022/08/30 03:33:44;;;;;;;3.83;3.10;;;;;;;14.88;72.96;100954.53;10084400;29;20207;-77
2022/08/30 03:38:47;;;;;;;4.43;3.13;;;;;;;14.80;73.32;100952.53;10059704;29;20103;-78
2022/08/30 03:43:51;;;;;;;3.30;2.97;;;;;;;14.74;73.19;100950.38;10112153;29;20132;-78
2022/08/30 03:49:01;;;;;;;4.97;2.80;;;;;;;14.68;73.92;100953.63;10106449;29;20045;-79
2022/08/30 03:54:04;;;;;;;4.10;3.08;;;;;;;14.73;73.53;100954.09;10099231;29;20093;-78
2022/08/30 03:59:08;;;;;;;3.70;3.28;;;;;;;14.77;73.66;100954.66;10060472;29;20139;-77
2022/08/30 04:04:11;;;;;;;6.05;3.50;;;;;;;14.79;73.59;100972.47;10087273;29;20140;-79
2022/08/30 04:09:20;;;;;;;3.38;3.08;;;;;;;14.86;73.46;100974.59;10027867;29;20175;-78
2022/08/30 04:14:24;;;;;;;3.42;3.10;;;;;;;14.88;73.57;100972.63;10074448;29;20091;-77
2022/08/30 04:19:27;;;;;;;3.55;3.10;;;;;;;14.84;73.23;100969.34;10077973;29;20526;-78
2022/08/30 04:24:30;;;;;;;4.80;3.72;;;;;;;14.88;73.30;100962.66;10055421;29;20072;-79
2022/08/30 04:29:35;;;;;;;4.30;3.20;;;;;;;14.90;73.42;100965.25;10084826;29;20534;-77
2022/08/30 04:34:38;;;;;;;4.70;3.83;;;;;;;14.85;73.48;100973.75;10061214;29;20055;-77
2022/08/30 04:39:41;;;;;;;3.80;3.25;;;;;;;14.80;73.55;100973.31;10077553;29;20152;-77
2022/08/30 04:44:45;;;;;;;2.63;1.80;;;;;;;14.88;73.62;100981.59;10057041;29;20049;-77
2022/08/30 04:49:48;;;;;;;4.63;2.10;;;;;;;15.12;72.76;100974.97;10058120;29;21497;-77
2022/08/30 04:54:54;;;;;;;3.90;1.83;;;;;;;15.22;72.31;100982.13;10071063;29;20220;-76
2022/08/30 04:59:58;;;;;;;9.15;2.17;;;;;;;15.23;72.08;100980.25;10065729;29;20132;-76
2022/08/30 05:10:22;;;;;;;7.00;3.97;;;;;;;15.41;71.72;101002.09;10092974;29;20042;-77
2022/08/30 05:15:26;;;;;;;5.47;4.07;;;;;;;15.45;71.26;101006.25;10048446;29;20045;-76
2022/08/30 05:20:29;;;;;;;9.93;6.70;;;;;;;15.42;71.75;101006.53;10093680;29;20123;-76
2022/08/30 05:25:36;;;;;;;10.82;8.55;;;;;;;15.45;71.64;101009.78;10104947;29;20053;-77
2022/08/30 05:30:41;;;;;;;10.13;6.65;;;;;;;15.46;72.25;101010.66;10094522;29;20143;-77
2022/08/30 05:35:43;;;;;;;16.08;10.57;;;;;;;15.48;72.32;101014.06;10095444;29;20061;-76
2022/08/30 05:40:46;;;;;;;19.98;13.30;;;;;;;15.32;72.98;101011.88;10086777;29;20523;-76
2022/08/30 05:45:58;;;;;;;19.77;14.38;;;;;;;15.24;72.98;101017.97;10048717;29;20102;-76
2022/08/30 05:51:03;;;;;;;24.30;16.10;;;;;;;15.41;73.07;101023.75;10103938;29;21268;-76
2022/08/30 05:56:09;;;;;;;28.40;18.20;;;;;;;15.48;72.91;101022.19;10099261;29;20140;-76
2022/08/30 06:01:25;;;;;;;27.20;18.58;;;;;;;15.50;72.83;101033.75;10079046;29;20171;-76
2022/08/30 06:06:29;;;;;;;35.20;19.33;;;;;;;15.47;73.06;101037.59;10081795;29;20101;-76
2022/08/30 06:11:32;;;;;;;31.05;18.70;;;;;;;15.52;73.26;101034.44;10077893;29;20069;-77
2022/08/30 06:16:38;;;;;;;27.63;19.83;;;;;;;15.54;73.57;101046.00;10094939;29;20056;-77
2022/08/30 06:21:42;;;;;;;29.10;19.58;;;;;;;15.78;72.69;101039.31;10087820;29;20140;-76
2022/08/30 06:26:46;;;;;;;27.23;18.67;;;;;;;15.85;72.18;101027.78;10080441;29;20570;-76
2022/08/30 06:31:51;;;;;;;29.08;19.33;;;;;;;16.06;72.15;101045.72;10071653;29;20083;-76
2022/08/30 06:36:54;;;;;;;30.50;19.80;;;;;;;16.12;71.46;101037.84;10082620;29;20055;-76
2022/08/30 06:41:57;;;;;;;28.42;17.45;;;;;;;16.24;70.78;101037.72;10089443;29;20057;-77
2022/08/30 06:47:04;;;;;;;27.73;16.10;;;;;;;16.35;70.00;101043.00;10092223;29;20107;-77
2022/08/30 06:52:07;;;;;;;21.00;14.52;;;;;;;16.01;70.22;101040.72;10075439;29;20095;-77
2022/08/30 06:57:12;;;;;;;20.70;13.52;;;;;;;15.97;70.50;101039.31;10084972;29;20052;-77
2022/08/30 07:02:16;;;;;;;20.30;13.90;;;;;;;16.38;69.57;101044.56;10078777;29;20088;-78
2022/08/30 07:07:19;;;;;;;19.27;13.50;;;;;;;16.83;68.34;101050.13;10084496;29;20068;-77
2022/08/30 07:12:22;;;;;;;17.48;12.70;;;;;;;17.05;66.99;101038.00;10075426;29;20775;-77
2022/08/30 07:22:47;;;;;;;14.20;10.27;;;;;;;16.87;66.80;101047.97;10086429;29;20137;-77
2022/08/30 07:27:50;;;;;;;16.10;10.35;;;;;;;17.07;66.18;101055.00;10082105;29;20060;-78
2022/08/30 07:32:54;;;;;;;14.27;9.45;;;;;;;17.43;64.80;101053.25;10075488;29;20264;-77
2022/08/30 07:37:58;;;;;;;12.18;8.45;;;;;;;18.14;63.35;101057.88;10090080;29;20137;-77
2022/08/30 07:43:01;;;;;;;10.27;7.65;;;;;;;18.79;61.61;101053.91;10088084;29;20511;-77
2022/08/30 07:48:06;;;;;;;8.15;6.45;;;;;;;19.13;60.41;101061.22;10090802;29;20049;-77
2022/08/30 07:53:08;;;;;;;6.38;5.55;;;;;;;19.76;58.14;101059.88;10094340;29;20088;-77
2022/08/30 07:58:13;;;;;;;9.68;6.30;;;;;;;19.88;56.72;101067.56;10061340;29;20060;-77
2022/08/30 08:03:18;;;;;;;8.05;5.93;;;;;;;19.94;56.86;101062.44;10091028;29;20049;-78
2022/08/30 08:08:21;;;;;;;8.23;6.55;;;;;;;19.72;57.51;101058.50;10076546;29;20129;-78
2022/08/30 08:13:24;;;;;;;7.45;6.57;;;;;;;19.26;58.22;101066.22;10086274;29;20682;-77
2022/08/30 08:18:35;;;;;;;8.45;6.68;;;;;;;19.77;58.25;101064.31;10093830;29;20067;-77
2022/08/30 08:23:38;;;;;;;6.80;5.90;;;;;;;21.12;54.43;101068.28;10082903;29;20045;-77
2022/08/30 08:28:41;;;;;;;6.47;5.22;;;;;;;22.35;51.75;101065.56;10079889;29;20625;-77
2022/08/30 08:33:46;;;;;;;5.07;4.63;;;;;;;22.54;50.27;101054.16;10079961;29;20890;-77
2022/08/30 08:38:49;;;;;;;6.35;5.43;;;;;;;22.06;51.07;101061.72;10070160;29;20052;-77
2022/08/30 08:43:52;;;;;;;6.30;4.57;;;;;;;22.55;50.78;101065.94;10073334;29;20124;-78
2022/08/30 08:49:01;;;;;;;5.47;4.97;;;;;;;22.83;49.54;101054.34;10093015;29;20061;-77
2022/08/30 08:54:08;;;;;;;6.03;4.88;;;;;;;23.20;48.63;101048.78;10070767;29;20143;-77
2022/08/30 08:59:12;;;;;;;4.60;4.10;;;;;;;23.56;47.64;101047.94;10076040;29;20562;-76
2022/08/30 09:04:20;;;;;;;5.32;4.30;;;;;;;23.27;47.50;101048.00;10076714;29;20049;-76
2022/08/30 09:09:29;;;;;;;4.65;3.97;;;;;;;23.42;47.87;101046.94;10087139;29;20135;-75
2022/08/30 09:14:35;;;;;;;3.90;3.60;;;;;;;23.32;47.51;101053.75;10079854;29;20052;-76
2022/08/30 09:19:44;;;;;;;4.63;4.00;;;;;;;23.74;46.50;101054.84;10075591;29;20069;-77
2022/08/30 09:24:49;;;;;;;4.85;4.45;;;;;;;24.17;46.44;101042.00;10090975;29;20053;-77
2022/08/30 09:29:59;;;;;;;4.57;4.13;;;;;;;23.56;46.90;101034.22;10084666;29;20053;-77
2022/08/30 09:35:07;;;;;;;4.30;3.90;;;;;;;24.47;45.58;101039.09;10075810;29;20100;-77
2022/08/30 09:40:17;;;;;;;3.20;2.90;;;;;;;25.12;44.18;101036.94;10082495;29;20071;-77
2022/08/30 09:45:31;;;;;;;3.85;3.45;;;;;;;25.04;44.03;101039.84;10072848;29;20075;-76
2022/08/30 09:50:36;;;;;;;4.07;2.85;;;;;;;25.14;43.78;101034.84;10083466;29;20060;-77
2022/08/30 09:55:56;;;;;;;3.78;2.97;;;;;;;25.68;42.56;101030.38;10072888;29;20128;-77
2022/08/30 10:01:09;;;;;;;3.92;2.42;;;;;;;25.16;43.25;101019.00;10086732;29;20547;-77
2022/08/30 10:06:27;;;;;;;2.90;2.45;;;;;;;24.72;44.04;101020.22;10085867;29;20192;-76
2022/08/30 10:11:39;;;;;;;4.80;2.05;;;;;;;24.93;43.94;101024.75;10073841;29;20053;-76
2022/08/30 10:16:50;;;;;;;4.87;2.00;;;;;;;25.09;43.95;101013.44;10084369;29;20711;-77
2022/08/30 10:22:01;;;;;;;2.83;1.80;;;;;;;25.25;43.02;101011.41;10102753;29;20139;-76
2022/08/30 10:27:08;;;;;;;2.80;2.23;;;;;;;25.70;42.40;101009.88;10086143;29;20168;-77
2022/08/30 10:32:20;;;;;;;1.60;1.48;;;;;;;26.15;41.40;101001.81;10083140;29;20052;-77
2022/08/30 10:37:26;;;;;;;2.08;1.92;;;;;;;26.52;41.12;101016.84;10080519;29;20095;-77
2022/08/30 10:42:34;;;;;;;3.00;1.88;;;;;;;26.96;40.19;101006.16;10056261;29;20485;-78
2022/08/30 10:47:44;;;;;;;;;;;;;;;26.96;39.40;101008.94;10077736;29;20104;-78
2022/08/30 10:52:56;;;;;;;2.90;1.92;;;;;;;27.00;39.52;100996.38;10089684;29;19998;-78
2022/08/30 10:58:00;;;;;;;3.33;2.53;;;;;;;28.13;38.00;101000.38;10085667;29;20127;-78
2022/08/30 11:03:41;;;;;;;3.30;1.40;;;;;;;29.15;35.75;100996.09;10078874;29;20105;-78
2022/08/30 11:09:01;;;;;;;2.10;2.00;;;;;;;29.58;34.13;100981.19;10082524;29;20503;-78
2022/08/30 11:14:06;;;;;;;1.90;1.73;;;;;;;30.06;34.88;100992.38;10088423;29;20700;-77
2022/08/30 11:19:17;;;;;;;3.42;1.90;;;;;;;30.87;32.69;100988.75;10078773;29;20056;-77
2022/08/30 11:24:24;;;;;;;2.80;2.20;;;;;;;30.48;31.69;100987.59;10102569;29;20053;-78
2022/08/30 11:29:34;;;;;;;2.17;1.70;;;;;;;30.21;32.81;100987.25;10083923;29;20108;-78
2022/08/30 11:34:59;;;;;;;2.85;2.65;;;;;;;30.83;32.27;100972.88;10092957;29;20076;-78
2022/08/30 11:40:09;;;;;;;2.67;2.45;;;;;;;30.96;31.68;100969.78;10081332;29;20538;-78
2022/08/30 11:45:51;;;;;;;2.70;2.50;;;;;;;31.31;30.90;100978.00;10086646;29;20064;-78
2022/08/30 11:51:00;;;;;;;3.20;2.90;;;;;;;31.39;30.67;100967.59;10095654;29;20056;-78
2022/08/30 11:56:11;;;;;;;5.63;3.10;;;;;;;30.97;31.39;100956.78;10082730;29;21177;-78
2022/08/30 12:01:32;;;;;;;3.40;3.10;;;;;;;31.72;30.22;100953.78;10078150;29;20080;-78
2022/08/30 12:06:58;;;;;;;3.50;3.20;;;;;;;32.15;30.47;100951.41;10081472;29;20060;-78
2022/08/30 12:12:05;;;;;;;3.78;3.47;;;;;;;30.57;32.35;100955.63;10089573;29;21406;-78
2022/08/30 12:22:39;;;;;;;4.15;3.85;;;;;;;28.16;35.12;100950.19;10082681;29;20063;-78
2022/08/30 12:27:43;;;;;;;4.72;3.20;;;;;;;28.54;34.86;100946.44;10086462;29;20271;-78
2022/08/30 12:32:48;;;;;;;4.22;3.55;;;;;;;27.16;37.25;100939.91;10077118;29;21253;-77
2022/08/30 12:37:59;;;;;;;3.55;3.25;;;;;;;29.51;32.57;100932.56;10078057;29;20052;-78
2022/08/30 12:43:05;;;;;;;3.40;3.10;;;;;;;31.85;30.46;100929.56;10073950;29;20049;-78
2022/08/30 12:48:13;;;;;;;4.28;3.17;;;;;;;33.39;27.81;100929.63;10077665;29;20104;-78
2022/08/30 12:53:26;;;;;;;3.08;2.47;;;;;;;34.05;27.26;100927.38;10075678;29;21271;-78
2022/08/30 12:58:37;;;;;;;3.13;2.70;;;;;;;34.21;26.45;100917.22;10071661;29;21348;-78
2022/08/30 13:03:40;;;;;;;3.58;2.50;;;;;;;33.40;28.42;100906.25;10088050;29;20063;-77
2022/08/30 13:08:52;;;;;;;3.33;2.90;;;;;;;33.05;28.41;100913.09;10078086;29;20055;-78
2022/08/30 13:14:17;;;;;;;2.97;2.70;;;;;;;31.92;29.98;100911.59;10076617;29;20075;-78
2022/08/30 13:19:36;;;;;;;4.07;2.80;;;;;;;31.43;29.80;100896.59;10079202;29;20094;-77
2022/08/30 13:24:39;;;;;;;2.75;2.55;;;;;;;31.48;30.74;100897.53;10083294;29;20071;-78
2022/08/30 13:29:43;;;;;;;2.80;2.30;;;;;;;31.02;30.67;100893.94;10094356;29;21626;-78
2022/08/30 13:34:47;;;;;;;4.03;2.78;;;;;;;29.63;31.81;100899.41;10079512;29;20049;-78
2022/08/30 13:39:50;;;;;;;2.92;2.63;;;;;;;27.76;34.00;100909.97;10079786;29;20069;-78
2022/08/30 13:44:53;;;;;;;4.60;2.75;;;;;;;28.36;33.14;100892.84;10071471;29;20136;-78
2022/08/30 13:49:57;;;;;;;4.50;2.30;;;;;;;29.56;31.59;100899.47;10072348;29;20056;-78
2022/08/30 13:55:00;;;;;;;2.97;2.47;;;;;;;30.25;31.15;100897.88;10083746;29;20052;-78
2022/08/30 14:00:09;;;;;;;3.58;2.67;;;;;;;31.02;32.17;100891.16;10082926;29;20040;-77
2022/08/30 14:05:15;;;;;;;3.83;2.70;;;;;;;30.61;31.67;100881.16;10084236;29;20071;-77
2022/08/30 14:10:39;;;;;;;4.78;3.20;;;;;;;29.31;31.93;100889.44;10086120;29;20056;-77
2022/08/30 14:15:50;;;;;;;3.97;3.08;;;;;;;28.91;32.98;100880.91;10078198;29;20055;-78
2022/08/30 14:21:14;;;;;;;3.42;3.13;;;;;;;28.87;33.65;100891.56;10085750;29;20140;-78
2022/08/30 14:26:21;;;;;;;3.00;2.70;;;;;;;29.59;32.59;100879.63;10071985;29;21275;-78
2022/08/30 14:31:24;;;;;;;3.88;2.60;;;;;;;29.61;32.06;100874.72;10068654;29;20060;-78
2022/08/30 14:36:29;;;;;;;5.45;3.00;;;;;;;29.59;32.62;100879.63;10070756;29;20124;-76
2022/08/30 14:41:32;;;;;;;2.63;2.42;;;;;;;30.23;31.75;100879.81;10095004;29;20171;-79
2022/08/30 14:46:36;;;;;;;3.40;2.42;;;;;;;30.27;29.87;100858.00;10064698;29;20143;-78
2022/08/30 14:51:41;;;;;;;4.10;3.30;;;;;;;29.67;31.86;100865.47;10079067;29;20053;-77
2022/08/30 14:56:44;;;;;;;3.30;3.00;;;;;;;29.78;30.67;100861.84;10086075;29;20050;-78
2022/08/30 15:01:47;;;;;;;4.72;3.08;;;;;;;28.88;32.19;100865.63;10076775;29;20052;-77
2022/08/30 15:06:51;;;;;;;6.32;3.45;;;;;;;27.55;34.22;100864.31;10077101;29;20697;-78
2022/08/30 15:11:56;;;;;;;3.80;3.00;;;;;;;28.00;33.65;100858.63;10073623;29;20180;-78
2022/08/30 15:17:02;;;;;;;3.30;2.88;;;;;;;29.02;32.27;100855.22;10062727;29;20060;-78
2022/08/30 15:22:07;;;;;;;4.35;3.05;;;;;;;28.83;31.76;100856.34;10084508;29;20056;-78
2022/08/30 15:27:11;;;;;;;4.20;3.35;;;;;;;29.04;31.81;100853.03;10083925;29;20571;-78
2022/08/30 15:32:14;;;;;;;4.28;2.85;;;;;;;28.50;31.97;100854.84;10088417;29;20213;-78
2022/08/30 15:37:21;;;;;;;3.40;3.10;;;;;;;28.34;31.59;100848.03;10086170;29;20049;-77
2022/08/30 15:42:24;;;;;;;4.30;2.95;;;;;;;28.47;32.17;100842.34;10083693;29;20863;-78
2022/08/30 15:47:26;;;;;;;4.20;3.28;;;;;;;28.55;31.48;100837.56;10073187;29;20100;-78
2022/08/30 15:52:31;;;;;;;4.38;2.63;;;;;;;28.39;31.60;100828.00;10087321;29;20053;-78
2022/08/30 15:57:34;;;;;;;3.85;3.22;;;;;;;28.48;31.17;100827.44;10082806;29;20692;-78
2022/08/30 16:02:37;;;;;;;4.57;2.90;;;;;;;28.55;31.41;100819.09;10092097;29;20056;-78
2022/08/30 16:07:44;;;;;;;3.35;2.45;;;;;;;28.71;31.08;100823.09;10082303;29;20196;-78
2022/08/30 16:12:47;;;;;;;3.92;2.50;;;;;;;28.39;30.70;100798.44;10100576;29;20085;-77
2022/08/30 16:17:50;;;;;;;5.18;2.83;;;;;;;28.22;31.48;100805.66;10077980;29;20109;-78
2022/08/30 16:22:54;;;;;;;2.55;2.35;;;;;;;28.18;31.22;100807.22;10069010;29;20101;-78
2022/08/30 16:27:57;;;;;;;3.45;2.38;;;;;;;28.03;31.52;100810.38;10069472;29;20056;-78
2022/08/30 16:32:59;;;;;;;2.85;2.13;;;;;;;27.89;31.17;100806.03;10076204;29;20210;-78
2022/08/30 16:38:04;;;;;;;3.75;2.17;;;;;;;27.67;31.17;100794.59;10079695;29;20085;-78
2022/08/30 16:43:07;;;;;;;3.05;2.60;;;;;;;27.59;31.52;100785.56;10115071;29;20064;-76
2022/08/30 16:48:10;;;;;;;3.65;2.58;;;;;;;26.55;32.51;100786.94;10079121;29;20140;-77
2022/08/30 16:53:14;;;;;;;2.45;2.15;;;;;;;25.87;33.79;100786.56;10075384;29;20049;-77
2022/08/30 16:58:18;;;;;;;2.30;1.85;;;;;;;26.06;33.50;100777.41;10074487;29;20628;-78
2022/08/30 17:03:24;;;;;;;2.15;1.77;;;;;;;26.02;32.74;100785.22;10070560;29;20048;-78
2022/08/30 17:08:28;;;;;;;1.90;1.60;;;;;;;26.01;32.45;100782.72;10083202;29;21786;-77
2022/08/30 17:13:32;;;;;;;5.40;2.20;;;;;;;26.06;33.33;100792.00;10073987;29;20048;-78
2022/08/30 17:18:37;;;;;;;2.13;1.90;;;;;;;25.72;33.63;100795.06;10071548;29;20045;-77
2022/08/30 17:23:41;;;;;;;4.78;1.67;;;;;;;25.28;34.49;100791.06;10070112;29;20061;-78
2022/08/30 17:28:46;;;;;;;4.68;1.38;;;;;;;24.58;35.66;100805.09;10075732;29;20056;-78
2022/08/30 17:33:49;;;;;;;3.42;1.98;;;;;;;23.98;35.87;100798.47;10077118;29;20656;-77
2022/08/30 17:38:53;;;;;;;2.78;1.40;;;;;;;23.42;36.81;100808.44;10072004;29;20524;-78
2022/08/30 17:43:56;;;;;;;3.03;2.22;;;;;;;23.14;37.59;100802.91;10072625;29;20068;-78
2022/08/30 17:48:59;;;;;;;2.53;1.65;;;;;;;22.92;37.51;100799.28;10077176;29;20053;-78
2022/08/30 17:54:05;;;;;;;3.42;1.63;;;;;;;22.61;38.05;100807.81;10081101;29;20051;-78
2022/08/30 17:59:09;;;;;;;2.42;1.52;;;;;;;22.42;37.77;100824.84;10082673;29;20611;-78
2022/08/30 18:04:17;;;;;;;6.55;1.30;;;;;;;22.17;38.64;100822.41;10085654;29;20056;-78
2022/08/30 18:09:24;;;;;;;2.03;1.60;;;;;;;21.86;38.95;100834.41;10076997;29;20053;-77
2022/08/30 18:14:26;;;;;;;4.93;1.80;;;;;;;21.51;39.44;100840.56;10071673;29;20054;-78
2022/08/30 18:19:30;;;;;;;5.85;1.80;;;;;;;21.33;40.10;100840.88;10088889;29;20692;-77
2022/08/30 18:24:35;;;;;;;3.00;1.92;;;;;;;21.18;40.54;100859.97;10095691;29;20056;-78
2022/08/30 18:29:38;;;;;;;2.58;1.67;;;;;;;21.03;40.84;100857.13;10077003;29;20048;-77
2022/08/30 18:34:41;;;;;;;5.43;1.98;;;;;;;20.87;41.25;100849.91;10078648;29;20072;-77
2022/08/30 18:39:47;;;;;;;3.78;2.15;;;;;;;20.67;41.18;100856.84;10069947;29;20048;-77
2022/08/30 18:44:52;;;;;;;3.25;1.85;;;;;;;20.52;42.12;100865.81;10075497;29;20064;-78
2022/08/30 18:49:55;;;;;;;3.15;1.88;;;;;;;20.41;43.14;100858.00;10100641;29;20061;-76
2022/08/30 18:54:59;;;;;;;3.17;1.73;;;;;;;20.33;44.20;100850.72;10081873;29;20163;-77
2022/08/30 19:00:03;;;;;;;2.33;1.60;;;;;;;20.27;45.50;100867.75;10076254;29;20072;-77
2022/08/30 19:05:07;;;;;;;3.47;1.52;;;;;;;20.20;46.73;100872.19;10069154;29;20132;-77
2022/08/30 19:10:13;;;;;;;2.40;1.20;;;;;;;20.16;47.39;100876.31;10066450;29;20701;-77
2022/08/30 19:15:16;;;;;;;3.30;1.50;;;;;;;20.06;48.11;100875.66;10075368;29;20887;-78
2022/08/30 19:20:21;;;;;;;2.10;0.80;;;;;;;20.01;48.77;100880.78;10047361;29;20053;-77
2022/08/30 19:25:26;;;;;;;1.75;0.93;;;;;;;19.89;49.38;100881.16;10043716;29;21168;-78
2022/08/30 19:30:30;;;;;;;0.93;0.88;;;;;;;19.78;49.88;100880.69;10094902;29;20052;-77
2022/08/30 19:35:33;;;;;;;1.40;0.90;;;;;;;19.63;50.62;100897.69;10085214;29;20525;-78
2022/08/30 19:40:37;;;;;;;1.98;1.02;;;;;;;19.56;51.20;100893.97;10066115;29;21060;-78
2022/08/30 19:45:40;;;;;;;2.22;1.13;;;;;;;19.53;51.50;100897.00;10096031;29;20426;-77
2022/08/30 19:50:43;;;;;;;1.35;0.80;;;;;;;19.41;51.80;100893.75;10074761;29;20052;-78
2022/08/30 19:55:47;;;;;;;2.13;0.90;;;;;;;19.46;52.05;100904.16;10093715;29;20056;-77
2022/08/30 20:00:50;;;;;;;2.60;1.27;;;;;;;19.41;52.33;100911.97;10058332;29;20077;-78
2022/08/30 20:06:14;;;;;;;0.60;0.60;;;;;;;19.28;52.80;100907.06;10059152;29;20121;-77
2022/08/30 20:11:20;;;;;;;0.65;0.55;;;;;;;19.29;52.92;100910.63;10074228;29;20184;-78
2022/08/30 20:16:25;;;;;;;1.42;1.00;;;;;;;19.21;53.15;100908.75;10075274;29;20093;-77
2022/08/30 20:21:48;;;;;;;2.42;0.80;;;;;;;19.11;53.57;100910.75;10068816;29;20053;-78
2022/08/30 20:26:53;;;;;;;0.80;0.50;;;;;;;18.98;53.72;100903.94;10069492;29;20053;-79
2022/08/30 20:31:56;;;;;;;1.13;0.80;;;;;;;18.98;53.77;100908.53;10068129;29;20105;-77
2022/08/30 20:36:59;;;;;;;0.88;0.70;;;;;;;18.92;53.91;100917.34;10064019;29;20105;-77
2022/08/30 20:42:03;;;;;;;2.67;0.75;;;;;;;18.91;54.06;100923.81;10067237;29;20122;-77
2022/08/30 20:47:06;;;;;;;2.45;0.75;;;;;;;18.87;54.24;100928.75;10078181;29;20188;-79
2022/08/30 20:52:09;;;;;;;2.45;0.90;;;;;;;18.80;54.44;100920.38;10085655;29;20423;-78
2022/08/30 20:57:13;;;;;;;2.47;1.00;;;;;;;18.72;54.82;100916.75;10046669;29;20090;-78
2022/08/30 21:02:16;;;;;;;1.45;0.90;;;;;;;18.70;54.85;100918.78;10036781;29;21195;-78
2022/08/30 21:07:19;;;;;;;1.33;0.90;;;;;;;18.62;55.13;100929.63;10085127;29;20056;-77
2022/08/30 21:12:23;;;;;;;4.97;1.00;;;;;;;18.58;55.63;100935.41;10090271;29;20193;-78
2022/08/30 21:17:28;;;;;;;3.95;0.90;;;;;;;18.51;55.70;100941.66;10089950;29;20507;-79
2022/08/30 21:22:31;;;;;;;1.10;0.82;;;;;;;18.42;55.83;100942.66;10074985;29;20060;-77
2022/08/30 21:27:35;;;;;;;1.70;0.98;;;;;;;18.42;56.02;100951.66;10095098;29;20048;-77
2022/08/30 21:32:38;;;;;;;2.78;1.10;;;;;;;18.36;56.11;100966.75;10091023;29;20071;-77
2022/08/30 21:37:41;;;;;;;1.88;0.80;;;;;;;18.34;56.03;100973.38;10058435;29;20148;-78
2022/08/30 21:42:48;;;;;;;1.70;0.80;;;;;;;18.33;56.04;100969.81;10078102;29;20052;-78
2022/08/30 21:47:51;;;;;;;2.47;0.88;;;;;;;18.24;56.12;100962.63;10074957;29;20060;-79
2022/08/30 21:52:54;;;;;;;2.05;0.80;;;;;;;18.22;56.17;100966.50;10115663;29;20147;-79
2022/08/30 21:57:58;;;;;;;3.47;0.75;;;;;;;18.19;56.41;100980.44;10069153;29;20179;-77
2022/08/30 22:03:01;;;;;;;1.30;1.02;;;;;;;18.20;56.18;100972.09;10080619;29;20143;-77
2022/08/30 22:08:04;;;;;;;1.55;0.90;;;;;;;18.13;56.19;100971.03;10079277;29;20243;-77
2022/08/30 22:13:11;;;;;;;1.02;0.93;;;;;;;18.08;56.44;100976.09;10065191;29;20173;-77
2022/08/30 22:18:15;;;;;;;2.45;1.00;;;;;;;17.92;56.43;100974.06;10086392;29;20045;-77
2022/08/30 22:23:19;;;;;;;2.40;0.90;;;;;;;17.90;56.37;100976.09;10083136;29;20064;-77
2022/08/30 22:28:24;;;;;;;1.90;1.20;;;;;;;17.91;56.46;100992.25;10067656;29;20105;-78
2022/08/30 22:33:27;;;;;;;0.85;0.85;;;;;;;17.91;56.27;100994.97;10086932;29;20502;-77
2022/08/30 22:38:30;;;;;;;1.52;0.80;;;;;;;17.83;56.09;100999.50;10078526;29;20339;-76
2022/08/30 22:43:34;;;;;;;1.38;0.98;;;;;;;17.82;56.24;101003.19;10082600;29;20396;-78
2022/08/30 22:48:39;;;;;;;1.92;0.90;;;;;;;17.81;56.40;100996.06;10072921;29;20049;-77
2022/08/30 22:53:43;;;;;;;0.93;0.85;;;;;;;17.66;56.80;101007.50;10061498;29;20120;-77
2022/08/30 22:58:48;;;;;;;2.20;0.85;;;;;;;17.62;57.57;101013.38;10041197;29;20044;-76
2022/08/30 23:03:52;;;;;;;1.10;1.00;;;;;;;17.51;57.82;101032.63;10085911;29;20140;-79
2022/08/30 23:08:55;;;;;;;1.85;1.00;;;;;;;17.44;58.06;101021.50;10067796;29;20056;-76
2022/08/30 23:13:59;;;;;;;2.35;1.30;;;;;;;17.38;58.41;101022.13;10038418;29;20700;-76
2022/08/30 23:19:02;;;;;;;1.77;1.17;;;;;;;17.30;58.74;101025.59;10091672;29;20139;-77
